createdAt,value
2023-05-05T00:00:59.032Z,8.89
2023-05-05T00:03:11.704Z,8.84
2023-05-05T00:05:25.427Z,8.76
2023-05-05T00:07:38.015Z,8.70
2023-05-05T00:09:50.612Z,8.62
2023-05-05T00:12:03.178Z,8.49
2023-05-05T00:14:16.391Z,8.43
2023-05-05T00:16:28.986Z,8.43
2023-05-05T00:18:41.609Z,8.46
2023-05-05T00:20:54.129Z,8.46
2023-05-05T00:23:06.861Z,8.47
2023-05-05T00:25:19.449Z,8.48
2023-05-05T00:27:32.084Z,8.48
2023-05-05T00:29:44.784Z,8.48
2023-05-05T00:31:57.395Z,8.49
2023-05-05T00:34:09.929Z,8.50
2023-05-05T00:36:22.803Z,8.51
2023-05-05T00:38:35.522Z,8.50
2023-05-05T00:40:48.048Z,8.51
2023-05-05T00:43:00.653Z,8.50
2023-05-05T00:45:15.528Z,8.47
2023-05-05T00:47:28.146Z,8.45
2023-05-05T00:49:40.953Z,8.46
2023-05-05T00:51:53.490Z,8.48
2023-05-05T00:54:06.096Z,8.50
2023-05-05T00:56:19.787Z,8.50
2023-05-05T00:58:32.421Z,8.50
2023-05-05T01:00:45.296Z,8.49
2023-05-05T01:02:58.065Z,8.50
2023-05-05T01:05:13.240Z,8.50
2023-05-05T01:07:59.838Z,8.47
2023-05-05T01:10:50.962Z,8.35
2023-05-05T01:13:09.450Z,8.29
2023-05-05T01:15:40.558Z,8.29
2023-05-05T01:18:00.696Z,8.28
2023-05-05T01:20:35.667Z,8.26
2023-05-05T01:22:57.045Z,8.22
2023-05-05T01:25:26.909Z,8.19
2023-05-05T01:28:10.206Z,8.11
2023-05-05T01:30:41.040Z,8.07
2023-05-05T01:33:00.725Z,8.04
2023-05-05T01:35:22.276Z,8.04
2023-05-05T01:37:47.754Z,8.07
2023-05-05T01:40:06.694Z,8.09
2023-05-05T01:42:22.315Z,8.12
2023-05-05T01:44:37.021Z,8.13
2023-05-05T01:46:52.151Z,8.12
2023-05-05T01:49:05.847Z,8.07
2023-05-05T01:51:22.184Z,8.05
2023-05-05T01:53:36.289Z,8.08
2023-05-05T01:55:50.126Z,8.08
2023-05-05T01:58:05.998Z,8.10
2023-05-05T02:00:22.899Z,8.13
2023-05-05T02:02:37.748Z,8.14
2023-05-05T02:04:52.632Z,8.14
2023-05-05T02:07:07.887Z,8.14
2023-05-05T02:09:21.573Z,8.15
2023-05-05T02:11:34.742Z,8.13
2023-05-05T02:13:48.606Z,8.10
2023-05-05T02:16:04.525Z,8.08
2023-05-05T02:18:18.559Z,8.08
2023-05-05T02:20:31.748Z,8.06
2023-05-05T02:22:44.654Z,8.04
2023-05-05T02:24:57.300Z,7.95
2023-05-05T02:27:11.426Z,7.88
2023-05-05T02:29:37.054Z,7.86
2023-05-05T02:31:52.808Z,7.84
2023-05-05T02:34:07.257Z,7.85
2023-05-05T02:36:22.899Z,7.84
2023-05-05T02:38:41.563Z,7.84
2023-05-05T02:40:56.352Z,7.83
2023-05-05T02:43:11.373Z,7.83
2023-05-05T02:45:26.700Z,7.84
2023-05-05T02:47:39.359Z,7.84
2023-05-05T02:49:52.030Z,7.84
2023-05-05T02:52:04.791Z,7.84
2023-05-05T02:54:17.516Z,7.82
2023-05-05T02:56:41.153Z,7.80
2023-05-05T02:59:08.782Z,7.80
2023-05-05T03:01:51.427Z,7.81
2023-05-05T03:04:17.612Z,7.81
2023-05-05T03:06:35.595Z,7.83
2023-05-05T03:09:13.170Z,7.83
2023-05-05T03:12:00.854Z,7.83
2023-05-05T03:14:18.256Z,7.81
2023-05-05T03:16:34.842Z,7.81
2023-05-05T03:18:49.762Z,7.81
2023-05-05T03:21:08.450Z,7.82
2023-05-05T03:23:22.679Z,7.83
2023-05-05T03:25:44.099Z,7.82
2023-05-05T03:27:56.782Z,7.80
2023-05-05T03:30:10.219Z,7.80
2023-05-05T03:32:24.115Z,7.82
2023-05-05T03:34:37.741Z,7.84
2023-05-05T03:36:50.355Z,7.84
2023-05-05T03:39:03.605Z,7.81
2023-05-05T03:41:16.272Z,7.78
2023-05-05T03:43:29.026Z,7.75
2023-05-05T03:45:41.591Z,7.75
2023-05-05T03:47:54.200Z,7.76
2023-05-05T03:50:07.603Z,7.76
2023-05-05T03:52:20.379Z,7.76
2023-05-05T03:54:32.923Z,7.77
2023-05-05T03:56:45.453Z,7.79
2023-05-05T03:58:58.169Z,7.83
2023-05-05T04:01:10.807Z,7.86
2023-05-05T04:03:23.564Z,7.91
2023-05-05T04:05:36.444Z,7.94
2023-05-05T04:07:48.939Z,7.96
2023-05-05T04:10:01.927Z,7.97
2023-05-05T04:12:14.483Z,7.99
2023-05-05T04:14:27.086Z,8.03
2023-05-05T04:16:39.874Z,8.07
2023-05-05T04:18:52.413Z,8.12
2023-05-05T04:21:04.972Z,8.10
2023-05-05T04:23:17.522Z,8.08
2023-05-05T04:25:30.097Z,8.08
2023-05-05T04:27:42.762Z,8.11
2023-05-05T04:29:55.791Z,8.13
2023-05-05T04:32:08.360Z,8.18
2023-05-05T04:34:20.992Z,8.24
2023-05-05T04:36:33.846Z,8.28
2023-05-05T04:38:46.432Z,8.32
2023-05-05T04:40:59.916Z,8.39
2023-05-05T04:43:12.403Z,8.49
2023-05-05T04:45:25.067Z,8.58
2023-05-05T04:47:39.253Z,8.68
2023-05-05T04:49:54.646Z,8.80
2023-05-05T04:52:07.210Z,8.97
2023-05-05T04:54:19.778Z,9.17
2023-05-05T04:56:32.401Z,9.35
2023-05-05T04:58:44.943Z,9.55
2023-05-05T05:00:57.546Z,9.76
2023-05-05T05:03:10.705Z,9.97
2023-05-05T05:05:23.421Z,10.18
2023-05-05T05:07:35.994Z,10.34
2023-05-05T05:09:48.570Z,10.44
2023-05-05T05:12:05.854Z,10.54
2023-05-05T05:14:18.395Z,10.69
2023-05-05T05:16:31.043Z,10.82
2023-05-05T05:18:43.593Z,10.94
2023-05-05T05:20:56.363Z,11.07
2023-05-05T05:23:08.911Z,11.27
2023-05-05T05:25:21.423Z,11.46
2023-05-05T05:27:34.031Z,11.59
2023-05-05T05:29:46.591Z,11.71
2023-05-05T05:32:00.638Z,11.83
2023-05-05T05:34:13.238Z,11.96
2023-05-05T05:36:26.247Z,12.13
2023-05-05T05:38:38.770Z,12.31
2023-05-05T05:40:51.328Z,12.49
2023-05-05T05:43:04.116Z,12.65
2023-05-05T05:45:16.717Z,12.82
2023-05-05T05:47:29.257Z,12.97
2023-05-05T05:49:41.781Z,13.05
2023-05-05T05:51:54.286Z,13.08
2023-05-05T05:54:06.831Z,13.12
2023-05-05T05:56:19.365Z,13.18
2023-05-05T05:58:31.918Z,13.24
2023-05-05T06:00:44.496Z,13.33
2023-05-05T06:02:57.117Z,13.46
2023-05-05T06:05:10.430Z,13.68
2023-05-05T06:07:22.974Z,13.86
2023-05-05T06:09:35.624Z,14.01
2023-05-05T06:11:48.306Z,14.11
2023-05-05T06:14:00.900Z,14.20
2023-05-05T06:16:13.736Z,14.33
2023-05-05T06:18:26.466Z,14.39
2023-05-05T06:20:39.241Z,14.51
2023-05-05T06:22:51.837Z,14.71
2023-05-05T06:25:04.597Z,14.91
2023-05-05T06:27:17.205Z,15.07
2023-05-05T06:29:29.833Z,15.24
2023-05-05T06:31:42.428Z,15.39
2023-05-05T06:33:55.074Z,15.49
2023-05-05T06:36:07.888Z,15.65
2023-05-05T06:38:20.629Z,15.82
2023-05-05T06:40:33.183Z,15.95
2023-05-05T06:42:45.759Z,15.98
2023-05-05T06:44:58.262Z,16.19
2023-05-05T06:47:10.784Z,16.41
2023-05-05T06:49:23.366Z,16.61
2023-05-05T06:51:36.039Z,16.75
2023-05-05T06:53:48.570Z,16.80
2023-05-05T06:56:01.086Z,16.79
2023-05-05T06:58:13.789Z,16.83
2023-05-05T07:00:26.479Z,16.86
2023-05-05T07:02:39.807Z,16.93
2023-05-05T07:04:52.432Z,17.04
2023-05-05T07:07:04.930Z,17.19
2023-05-05T07:09:18.514Z,17.39
2023-05-05T07:11:31.090Z,17.66
2023-05-05T07:13:43.590Z,17.89
2023-05-05T07:15:56.105Z,18.15
2023-05-05T07:18:08.667Z,18.29
2023-05-05T07:20:21.218Z,18.27
2023-05-05T07:22:33.894Z,18.34
2023-05-05T07:24:46.463Z,18.40
2023-05-05T07:26:59.211Z,18.49
2023-05-05T07:29:11.968Z,18.78
2023-05-05T07:31:25.736Z,18.94
2023-05-05T07:33:38.405Z,19.06
2023-05-05T07:35:51.075Z,19.28
2023-05-05T07:38:03.860Z,19.50
2023-05-05T07:40:16.462Z,19.60
2023-05-05T07:42:29.026Z,19.55
2023-05-05T07:44:41.635Z,19.59
2023-05-05T07:46:54.197Z,19.65
2023-05-05T07:49:06.740Z,19.83
2023-05-05T07:51:19.246Z,20.05
2023-05-05T07:53:31.951Z,20.26
2023-05-05T07:55:44.596Z,20.48
2023-05-05T07:57:57.135Z,20.67
2023-05-05T08:00:10.769Z,20.82
2023-05-05T08:02:23.723Z,21.00
2023-05-05T08:04:36.485Z,21.19
2023-05-05T08:06:49.065Z,21.25
2023-05-05T08:09:02.136Z,21.42
2023-05-05T08:11:17.420Z,21.68
2023-05-05T08:13:32.637Z,21.95
2023-05-05T08:15:45.372Z,22.15
2023-05-05T08:17:58.135Z,22.25
2023-05-05T08:20:10.982Z,22.35
2023-05-05T08:22:23.539Z,22.49
2023-05-05T08:24:36.135Z,22.64
2023-05-05T08:26:49.222Z,22.82
2023-05-05T08:29:02.230Z,23.13
2023-05-05T08:31:15.836Z,23.41
2023-05-05T08:33:28.480Z,23.43
2023-05-05T08:35:41.735Z,23.58
2023-05-05T08:37:55.953Z,23.85
2023-05-05T08:40:14.039Z,24.02
2023-05-05T08:42:37.129Z,24.09
2023-05-05T08:44:51.205Z,24.12
2023-05-05T08:47:05.545Z,24.30
2023-05-05T08:49:19.239Z,24.57
2023-05-05T08:51:41.367Z,24.82
2023-05-05T08:53:53.805Z,24.94
2023-05-05T08:56:07.771Z,25.17
2023-05-05T08:58:22.830Z,25.36
2023-05-05T09:00:36.251Z,25.49
2023-05-05T09:02:49.612Z,25.48
2023-05-05T09:05:05.310Z,25.41
2023-05-05T09:07:18.651Z,25.44
2023-05-05T09:09:31.517Z,25.61
2023-05-05T09:11:45.399Z,25.78
2023-05-05T09:13:58.016Z,25.97
2023-05-05T09:16:10.758Z,26.33
2023-05-05T09:18:23.462Z,26.42
2023-05-05T09:20:37.412Z,26.65
2023-05-05T09:22:49.933Z,26.82
2023-05-05T09:25:03.142Z,26.93
2023-05-05T09:27:23.285Z,26.91
2023-05-05T09:29:36.425Z,26.85
2023-05-05T09:32:08.316Z,26.92
2023-05-05T09:34:21.232Z,26.96
2023-05-05T09:36:47.977Z,27.14
2023-05-05T09:39:06.073Z,27.19
2023-05-05T09:41:36.700Z,27.37
2023-05-05T09:44:00.914Z,27.31
2023-05-05T09:46:14.198Z,27.30
2023-05-05T09:48:31.791Z,27.60
2023-05-05T09:50:44.789Z,28.02
2023-05-05T09:53:02.457Z,28.22
2023-05-05T09:55:18.177Z,28.44
2023-05-05T09:57:33.225Z,28.56
2023-05-05T09:59:57.440Z,28.59
2023-05-05T10:02:14.935Z,28.57
2023-05-05T10:04:29.964Z,28.61
2023-05-05T10:06:48.610Z,28.98
2023-05-05T10:09:01.854Z,29.18
2023-05-05T10:11:14.436Z,29.29
2023-05-05T10:13:28.057Z,29.64
2023-05-05T10:15:44.755Z,29.95
2023-05-05T10:18:07.804Z,29.84
2023-05-05T10:20:21.841Z,29.91
2023-05-05T10:22:35.276Z,30.17
2023-05-05T10:24:56.549Z,30.24
2023-05-05T10:27:16.544Z,30.16
2023-05-05T10:29:38.956Z,30.16
2023-05-05T10:31:54.103Z,30.10
2023-05-05T10:34:10.525Z,30.14
2023-05-05T10:36:25.021Z,30.35
2023-05-05T10:38:38.157Z,30.54
2023-05-05T10:40:51.668Z,30.56
2023-05-05T10:43:04.853Z,30.66
2023-05-05T10:45:17.690Z,30.98
2023-05-05T10:47:31.785Z,31.36
2023-05-05T10:49:55.741Z,31.44
2023-05-05T10:52:25.818Z,31.36
2023-05-05T10:54:50.021Z,31.39
2023-05-05T10:57:05.121Z,31.52
2023-05-05T10:59:35.634Z,31.84
2023-05-05T11:01:50.686Z,31.73
2023-05-05T11:04:23.782Z,31.90
2023-05-05T11:06:36.357Z,32.06
2023-05-05T11:08:48.875Z,32.49
2023-05-05T11:11:02.403Z,32.48
2023-05-05T11:13:15.019Z,32.86
2023-05-05T11:15:27.801Z,33.10
2023-05-05T11:17:47.233Z,33.21
2023-05-05T11:19:59.779Z,33.15
2023-05-05T11:22:12.549Z,33.58
2023-05-05T11:24:31.322Z,34.13
2023-05-05T11:26:54.010Z,34.23
2023-05-05T11:29:06.675Z,34.31
2023-05-05T11:31:19.928Z,34.62
2023-05-05T11:33:37.652Z,34.52
2023-05-05T11:35:57.781Z,34.31
2023-05-05T11:38:10.477Z,34.25
2023-05-05T11:40:30.406Z,34.51
2023-05-05T11:42:42.999Z,34.41
2023-05-05T11:44:56.107Z,34.34
2023-05-05T11:47:08.637Z,34.03
2023-05-05T11:49:28.944Z,34.06
2023-05-05T11:51:41.675Z,34.19
2023-05-05T11:53:54.243Z,34.84
2023-05-05T11:56:08.498Z,35.47
2023-05-05T11:58:21.065Z,35.60
2023-05-05T12:00:34.118Z,35.69
2023-05-05T12:02:46.952Z,35.39
2023-05-05T12:05:00.292Z,34.74
2023-05-05T12:07:20.773Z,34.23
2023-05-05T12:09:33.344Z,34.16
2023-05-05T12:11:56.477Z,34.24
2023-05-05T12:14:12.318Z,34.67
2023-05-05T12:16:24.937Z,35.04
2023-05-05T12:18:37.516Z,35.28
2023-05-05T12:20:51.151Z,35.42
2023-05-05T12:23:03.912Z,35.54
2023-05-05T12:25:17.031Z,35.98
2023-05-05T12:27:29.765Z,36.35
2023-05-05T12:29:42.278Z,36.44
2023-05-05T12:31:55.006Z,36.12
2023-05-05T12:34:11.527Z,35.32
2023-05-05T12:36:24.316Z,34.39
2023-05-05T12:38:36.878Z,33.83
2023-05-05T12:40:51.808Z,34.13
2023-05-05T12:43:04.390Z,33.78
2023-05-05T12:45:19.767Z,33.82
2023-05-05T12:47:33.262Z,34.23
2023-05-05T12:49:51.045Z,34.24
2023-05-05T12:52:03.670Z,34.11
2023-05-05T12:54:16.525Z,33.97
2023-05-05T12:56:42.587Z,33.92
2023-05-05T12:58:55.611Z,34.08
2023-05-05T13:01:09.071Z,34.55
2023-05-05T13:03:21.781Z,34.71
2023-05-05T13:05:38.058Z,34.70
2023-05-05T13:07:51.734Z,34.74
2023-05-05T13:10:10.339Z,34.72
2023-05-05T13:12:24.451Z,34.61
2023-05-05T13:14:38.352Z,34.19
2023-05-05T13:16:51.019Z,33.86
2023-05-05T13:19:03.596Z,33.59
2023-05-05T13:21:16.705Z,33.42
2023-05-05T13:23:29.195Z,33.60
2023-05-05T13:25:41.775Z,33.62
2023-05-05T13:27:54.342Z,33.22
2023-05-05T13:30:07.577Z,32.73
2023-05-05T13:32:20.106Z,32.64
2023-05-05T13:34:32.762Z,32.73
2023-05-05T13:36:45.359Z,32.59
2023-05-05T13:38:57.955Z,32.52
2023-05-05T13:41:10.559Z,32.29
2023-05-05T13:43:23.201Z,31.91
2023-05-05T13:45:35.770Z,31.84
2023-05-05T13:47:48.283Z,31.40
2023-05-05T13:50:00.823Z,30.91
2023-05-05T13:52:13.502Z,30.38
2023-05-05T13:54:26.176Z,29.96
2023-05-05T13:56:38.716Z,29.84
2023-05-05T13:58:51.896Z,29.87
2023-05-05T14:01:04.565Z,29.80
2023-05-05T14:03:17.143Z,29.55
2023-05-05T14:05:29.705Z,29.08
2023-05-05T14:07:42.503Z,28.83
2023-05-05T14:09:55.030Z,28.68
2023-05-05T14:12:07.688Z,28.59
2023-05-05T14:14:20.253Z,28.66
2023-05-05T14:16:32.930Z,28.62
2023-05-05T14:18:45.591Z,28.44
2023-05-05T14:20:58.117Z,28.26
2023-05-05T14:23:10.662Z,27.95
2023-05-05T14:25:23.408Z,27.76
2023-05-05T14:27:35.926Z,27.59
2023-05-05T14:29:48.535Z,27.61
2023-05-05T14:32:01.080Z,27.61
2023-05-05T14:34:13.696Z,27.45
2023-05-05T14:36:26.813Z,27.31
2023-05-05T14:38:39.470Z,27.05
2023-05-05T14:40:52.100Z,26.95
2023-05-05T14:43:04.673Z,26.97
2023-05-05T14:45:17.872Z,26.99
2023-05-05T14:47:30.445Z,26.75
2023-05-05T14:49:43.038Z,26.33
2023-05-05T14:51:56.881Z,26.03
2023-05-05T14:54:17.231Z,25.94
2023-05-05T14:56:37.103Z,25.76
2023-05-05T14:58:50.222Z,25.62
2023-05-05T15:01:02.836Z,25.60
2023-05-05T15:03:15.851Z,25.60
2023-05-05T15:05:29.647Z,25.62
2023-05-05T15:07:42.181Z,25.67
2023-05-05T15:09:56.464Z,25.62
2023-05-05T15:12:08.962Z,25.36
2023-05-05T15:14:21.465Z,24.96
2023-05-05T15:16:35.222Z,24.71
2023-05-05T15:18:48.042Z,24.43
2023-05-05T15:21:00.579Z,24.16
2023-05-05T15:23:13.138Z,23.94
2023-05-05T15:25:25.940Z,23.77
2023-05-05T15:27:39.464Z,23.65
2023-05-05T15:29:52.006Z,23.53
2023-05-05T15:32:04.927Z,23.39
2023-05-05T15:34:17.559Z,23.33
2023-05-05T15:36:30.196Z,23.32
2023-05-05T15:38:43.286Z,23.28
2023-05-05T15:40:55.817Z,23.25
2023-05-05T15:43:08.958Z,23.23
2023-05-05T15:45:21.519Z,23.16
2023-05-05T15:47:34.092Z,23.04
2023-05-05T15:49:46.710Z,22.95
2023-05-05T15:51:59.289Z,22.98
2023-05-05T15:54:12.024Z,22.92
2023-05-05T15:56:27.264Z,22.81
2023-05-05T15:58:39.804Z,22.70
2023-05-05T16:00:52.352Z,22.65
2023-05-05T16:03:04.987Z,22.60
2023-05-05T16:05:17.720Z,22.54
2023-05-05T16:07:31.965Z,22.48
2023-05-05T16:09:44.500Z,22.35
2023-05-05T16:11:57.072Z,22.25
2023-05-05T16:14:09.712Z,22.18
2023-05-05T16:16:22.452Z,22.18
2023-05-05T16:18:35.006Z,22.17
2023-05-05T16:20:47.516Z,22.08
2023-05-05T16:23:00.040Z,22.00
2023-05-05T16:25:12.642Z,21.94
2023-05-05T16:27:27.248Z,21.91
2023-05-05T16:29:39.963Z,21.85
2023-05-05T16:31:52.691Z,21.79
2023-05-05T16:34:05.407Z,21.77
2023-05-05T16:36:17.962Z,21.76
2023-05-05T16:38:31.039Z,21.77
2023-05-05T16:40:43.935Z,21.72
2023-05-05T16:42:56.475Z,21.63
2023-05-05T16:45:09.736Z,21.55
2023-05-05T16:47:22.474Z,21.48
2023-05-05T16:49:34.999Z,21.37
2023-05-05T16:51:47.550Z,21.22
2023-05-05T16:54:00.052Z,21.09
2023-05-05T16:56:13.115Z,20.97
2023-05-05T16:58:25.731Z,20.85
2023-05-05T17:00:38.591Z,20.71
2023-05-05T17:02:51.200Z,20.59
2023-05-05T17:05:03.955Z,20.50
2023-05-05T17:07:16.482Z,20.39
2023-05-05T17:09:29.003Z,20.32
2023-05-05T17:11:41.780Z,20.22
2023-05-05T17:13:54.345Z,20.16
2023-05-05T17:16:06.962Z,20.07
2023-05-05T17:18:25.634Z,19.98
2023-05-05T17:20:38.306Z,19.89
2023-05-05T17:22:50.882Z,19.81
2023-05-05T17:25:03.609Z,19.76
2023-05-05T17:27:16.701Z,19.67
2023-05-05T17:29:29.250Z,19.59
2023-05-05T17:31:42.133Z,19.52
2023-05-05T17:33:54.999Z,19.46
2023-05-05T17:36:08.116Z,19.40
2023-05-05T17:38:20.699Z,19.32
2023-05-05T17:40:33.218Z,19.26
2023-05-05T17:42:45.974Z,19.19
2023-05-05T17:44:59.777Z,19.11
2023-05-05T17:47:12.435Z,19.03
2023-05-05T17:49:25.512Z,18.95
2023-05-05T17:51:38.120Z,18.89
2023-05-05T17:53:50.687Z,18.83
2023-05-05T17:56:03.314Z,18.77
2023-05-05T17:58:15.840Z,18.71
2023-05-05T18:00:28.666Z,18.64
2023-05-05T18:02:41.950Z,18.58
2023-05-05T18:04:54.562Z,18.51
2023-05-05T18:07:07.625Z,18.46
2023-05-05T18:09:20.737Z,18.40
2023-05-05T18:11:33.991Z,18.33
2023-05-05T18:13:47.104Z,18.26
2023-05-05T18:15:59.901Z,18.18
2023-05-05T18:18:12.745Z,18.07
2023-05-05T18:20:25.342Z,17.98
2023-05-05T18:22:37.947Z,17.86
2023-05-05T18:24:50.757Z,17.71
2023-05-05T18:27:05.774Z,17.59
2023-05-05T18:29:20.119Z,17.46
2023-05-05T18:31:32.666Z,17.35
2023-05-05T18:33:47.577Z,17.30
2023-05-05T18:36:03.177Z,17.21
2023-05-05T18:38:15.797Z,17.15
2023-05-05T18:40:28.405Z,17.08
2023-05-05T18:42:41.682Z,17.02
2023-05-05T18:44:54.431Z,16.96
2023-05-05T18:47:07.492Z,16.89
2023-05-05T18:49:20.068Z,16.84
2023-05-05T18:51:32.649Z,16.77
2023-05-05T18:53:45.173Z,16.69
2023-05-05T18:55:59.056Z,16.64
2023-05-05T18:58:11.578Z,16.58
2023-05-05T19:00:24.491Z,16.51
2023-05-05T19:02:37.116Z,16.44
2023-05-05T19:04:49.830Z,16.39
2023-05-05T19:07:02.434Z,16.32
2023-05-05T19:09:15.002Z,16.26
2023-05-05T19:11:27.585Z,16.21
2023-05-05T19:13:40.657Z,16.14
2023-05-05T19:15:54.640Z,16.09
2023-05-05T19:18:07.377Z,16.03
2023-05-05T19:20:20.897Z,15.98
2023-05-05T19:22:33.485Z,15.92
2023-05-05T19:24:46.017Z,15.87
2023-05-05T19:26:58.712Z,15.81
2023-05-05T19:29:11.680Z,15.76
2023-05-05T19:31:27.563Z,15.72
2023-05-05T19:33:45.044Z,15.66
2023-05-05T19:35:57.586Z,15.60
2023-05-05T19:38:10.824Z,15.56
2023-05-05T19:40:24.853Z,15.51
2023-05-05T19:42:37.547Z,15.44
2023-05-05T19:44:50.145Z,15.37
2023-05-05T19:47:02.721Z,15.30
2023-05-05T19:49:15.269Z,15.23
2023-05-05T19:51:27.881Z,15.16
2023-05-05T19:53:42.658Z,15.09
2023-05-05T19:55:55.600Z,15.02
2023-05-05T19:58:08.066Z,14.95
2023-05-05T20:00:20.739Z,14.90
2023-05-05T20:02:36.167Z,14.84
2023-05-05T20:04:49.582Z,14.78
2023-05-05T20:07:02.176Z,14.73
2023-05-05T20:09:15.038Z,14.67
2023-05-05T20:11:28.081Z,14.62
2023-05-05T20:13:40.727Z,14.57
2023-05-05T20:15:53.438Z,14.52
2023-05-05T20:18:05.995Z,14.47
2023-05-05T20:20:21.830Z,14.42
2023-05-05T20:22:34.363Z,14.37
2023-05-05T20:24:46.891Z,14.34
2023-05-05T20:26:59.508Z,14.31
2023-05-05T20:29:12.779Z,14.26
2023-05-05T20:31:25.426Z,14.19
2023-05-05T20:33:38.038Z,14.12
2023-05-05T20:35:50.606Z,14.09
2023-05-05T20:38:04.543Z,14.04
2023-05-05T20:40:17.429Z,14.00
2023-05-05T20:42:30.003Z,13.95
2023-05-05T20:44:42.780Z,13.92
2023-05-05T20:46:55.462Z,13.87
2023-05-05T20:49:08.084Z,13.83
2023-05-05T20:51:20.687Z,13.81
2023-05-05T20:53:33.357Z,13.78
2023-05-05T20:55:45.995Z,13.76
2023-05-05T20:57:58.554Z,13.73
2023-05-05T21:00:11.480Z,13.68
2023-05-05T21:02:24.295Z,13.65
2023-05-05T21:04:36.967Z,13.62
2023-05-05T21:06:49.622Z,13.58
2023-05-05T21:09:02.205Z,13.54
2023-05-05T21:11:15.058Z,13.49
2023-05-05T21:13:27.892Z,13.47
2023-05-05T21:15:40.570Z,13.44
2023-05-05T21:17:53.276Z,13.39
2023-05-05T21:20:06.832Z,13.35
2023-05-05T21:22:20.536Z,13.33
2023-05-05T21:24:33.103Z,13.29
2023-05-05T21:26:45.809Z,13.24
2023-05-05T21:28:58.477Z,13.21
2023-05-05T21:31:21.814Z,13.18
2023-05-05T21:33:35.041Z,13.14
2023-05-05T21:35:47.675Z,13.12
2023-05-05T21:38:00.514Z,13.09
2023-05-05T21:40:13.887Z,13.08
2023-05-05T21:42:29.401Z,13.06
2023-05-05T21:44:42.014Z,13.04
2023-05-05T21:46:55.019Z,13.03
2023-05-05T21:49:15.563Z,13.01
2023-05-05T21:51:28.202Z,12.97
2023-05-05T21:53:40.810Z,12.96
2023-05-05T21:55:53.344Z,12.96
2023-05-05T21:58:05.906Z,12.95
2023-05-05T22:00:18.627Z,12.93
2023-05-05T22:02:33.250Z,12.92
2023-05-05T22:04:48.525Z,12.89
2023-05-05T22:07:01.366Z,12.86
2023-05-05T22:09:13.999Z,12.84
2023-05-05T22:11:26.677Z,12.82
2023-05-05T22:13:39.304Z,12.79
2023-05-05T22:15:51.975Z,12.76
2023-05-05T22:18:04.646Z,12.73
2023-05-05T22:20:17.262Z,12.71
2023-05-05T22:22:29.851Z,12.68
2023-05-05T22:24:42.387Z,12.64
2023-05-05T22:26:56.706Z,12.61
2023-05-05T22:29:09.975Z,12.58
2023-05-05T22:31:22.615Z,12.55
2023-05-05T22:33:36.060Z,12.53
2023-05-05T22:35:48.633Z,12.50
2023-05-05T22:38:01.484Z,12.49
2023-05-05T22:40:14.093Z,12.45
2023-05-05T22:42:26.776Z,12.41
2023-05-05T22:44:39.338Z,12.37
2023-05-05T22:46:51.919Z,12.36
2023-05-05T22:49:04.559Z,12.33
2023-05-05T22:51:17.746Z,12.34
2023-05-05T22:53:30.298Z,12.30
2023-05-05T22:55:42.880Z,12.30
2023-05-05T22:57:55.497Z,12.30
2023-05-05T23:00:09.173Z,12.30
2023-05-05T23:02:21.860Z,12.31
2023-05-05T23:04:34.476Z,12.31
2023-05-05T23:06:47.103Z,12.31
2023-05-05T23:08:59.638Z,12.32
2023-05-05T23:11:12.204Z,12.32
2023-05-05T23:13:26.457Z,12.30
2023-05-05T23:15:39.025Z,12.30
2023-05-05T23:17:51.666Z,12.30
2023-05-05T23:20:04.879Z,12.29
2023-05-05T23:22:17.540Z,12.27
2023-05-05T23:24:30.845Z,12.28
2023-05-05T23:26:43.384Z,12.30
2023-05-05T23:28:56.236Z,12.30
2023-05-05T23:31:09.121Z,12.29
2023-05-05T23:33:21.857Z,12.27
2023-05-05T23:35:34.479Z,12.26
2023-05-05T23:37:47.144Z,12.25
2023-05-05T23:40:01.906Z,12.23
2023-05-05T23:42:14.414Z,12.18
2023-05-05T23:44:27.629Z,12.17
2023-05-05T23:46:40.348Z,12.15
2023-05-05T23:48:53.269Z,12.14
2023-05-05T23:51:05.849Z,12.12
2023-05-05T23:53:18.548Z,12.10
2023-05-05T23:55:31.104Z,12.09
2023-05-05T23:57:43.789Z,12.06
2023-05-05T23:59:56.357Z,12.03
